sensor_id;sensor_type;location;lat;lon;timestamp;pressure;altitude;pressure_sealevel;temperature;humidity
4415;BME280;2220;42.670;23.398;2022-09-29T00:00:12;91961.53;;;16.88;100.00
4415;BME280;2220;42.670;23.398;2022-09-29T00:02:38;91974.25;;;16.82;100.00
4415;BME280;2220;42.670;23.398;2022-09-29T00:05:04;91952.31;;;16.34;100.00
4415;BME280;2220;42.670;23.398;2022-09-29T00:07:30;91907.81;;;16.48;100.00
4415;BME280;2220;42.670;23.398;2022-09-29T00:09:56;91879.34;;;16.54;100.00
4415;BME280;2220;42.670;23.398;2022-09-29T00:12:22;91878.69;;;16.64;100.00
4415;BME280;2220;42.670;23.398;2022-09-29T00:14:47;91861.06;;;16.68;100.00
4415;BME280;2220;42.670;23.398;2022-09-29T00:17:13;91844.63;;;16.71;100.00
4415;BME280;2220;42.670;23.398;2022-09-29T00:19:39;91832.25;;;16.75;100.00
4415;BME280;2220;42.670;23.398;2022-09-29T00:22:04;91844.31;;;16.42;100.00
4415;BME280;2220;42.670;23.398;2022-09-29T00:24:30;91823.63;;;16.34;100.00
4415;BME280;2220;42.670;23.398;2022-09-29T00:26:56;91785.41;;;16.43;100.00
4415;BME280;2220;42.670;23.398;2022-09-29T00:29:21;91783.22;;;16.49;100.00
4415;BME280;2220;42.670;23.398;2022-09-29T00:31:47;91803.88;;;16.50;100.00
4415;BME280;2220;42.670;23.398;2022-09-29T00:34:12;91797.03;;;16.42;100.00
4415;BME280;2220;42.670;23.398;2022-09-29T00:36:38;91774.59;;;16.52;100.00
4415;BME280;2220;42.670;23.398;2022-09-29T00:39:03;91789.28;;;16.57;100.00
4415;BME280;2220;42.670;23.398;2022-09-29T00:41:32;91822.00;;;16.63;100.00
4415;BME280;2220;42.670;23.398;2022-09-29T00:46:37;91824.94;;;16.58;100.00
4415;BME280;2220;42.670;23.398;2022-09-29T00:51:33;91829.16;;;16.66;100.00
4415;BME280;2220;42.670;23.398;2022-09-29T00:54:01;91818.63;;;16.62;100.00
4415;BME280;2220;42.670;23.398;2022-09-29T00:56:29;91807.44;;;16.69;100.00
4415;BME280;2220;42.670;23.398;2022-09-29T00:58:59;91807.47;;;16.72;100.00
4415;BME280;2220;42.670;23.398;2022-09-29T01:01:27;91836.34;;;16.69;100.00
4415;BME280;2220;42.670;23.398;2022-09-29T01:04:02;91837.84;;;16.70;100.00
4415;BME280;2220;42.670;23.398;2022-09-29T01:06:33;91837.13;;;16.73;100.00
4415;BME280;2220;42.670;23.398;2022-09-29T01:09:03;91852.16;;;16.76;100.00
4415;BME280;2220;42.670;23.398;2022-09-29T01:11:30;91870.16;;;16.70;100.00
4415;BME280;2220;42.670;23.398;2022-09-29T01:13:56;91875.97;;;16.53;100.00
4415;BME280;2220;42.670;23.398;2022-09-29T01:16:28;91843.63;;;16.45;100.00
4415;BME280;2220;42.670;23.398;2022-09-29T01:18:53;91803.47;;;16.45;100.00
4415;BME280;2220;42.670;23.398;2022-09-29T01:33:56;91773.19;;;16.14;100.00
4415;BME280;2220;42.670;23.398;2022-09-29T01:39:28;91848.97;;;15.82;100.00
4415;BME280;2220;42.670;23.398;2022-09-29T01:42:00;91835.94;;;15.89;100.00
4415;BME280;2220;42.670;23.398;2022-09-29T01:47:07;91826.31;;;16.04;100.00
4415;BME280;2220;42.670;23.398;2022-09-29T01:49:39;91819.56;;;16.03;100.00
4415;BME280;2220;42.670;23.398;2022-09-29T01:52:09;91801.97;;;16.07;100.00
4415;BME280;2220;42.670;23.398;2022-09-29T01:54:44;91818.72;;;15.95;100.00
4415;BME280;2220;42.670;23.398;2022-09-29T01:59:48;91841.81;;;16.12;100.00
4415;BME280;2220;42.670;23.398;2022-09-29T02:02:24;91842.13;;;16.11;100.00
4415;BME280;2220;42.670;23.398;2022-09-29T02:04:58;91871.78;;;15.78;100.00
4415;BME280;2220;42.670;23.398;2022-09-29T02:07:38;91857.31;;;15.34;100.00
4415;BME280;2220;42.670;23.398;2022-09-29T02:10:29;91827.00;;;15.37;100.00
4415;BME280;2220;42.670;23.398;2022-09-29T02:12:57;91812.34;;;15.32;100.00
4415;BME280;2220;42.670;23.398;2022-09-29T02:15:28;91805.09;;;15.22;100.00
4415;BME280;2220;42.670;23.398;2022-09-29T02:18:00;91795.63;;;15.14;100.00
4415;BME280;2220;42.670;23.398;2022-09-29T02:20:27;91792.56;;;15.08;100.00
4415;BME280;2220;42.670;23.398;2022-09-29T02:22:54;91794.34;;;15.01;100.00
4415;BME280;2220;42.670;23.398;2022-09-29T02:25:20;91809.13;;;14.90;100.00
4415;BME280;2220;42.670;23.398;2022-09-29T02:27:48;91831.66;;;14.68;100.00
4415;BME280;2220;42.670;23.398;2022-09-29T02:30:14;91827.19;;;14.26;100.00
4415;BME280;2220;42.670;23.398;2022-09-29T02:32:40;91810.44;;;14.31;100.00
4415;BME280;2220;42.670;23.398;2022-09-29T02:35:06;91786.50;;;14.28;100.00
4415;BME280;2220;42.670;23.398;2022-09-29T02:40:50;91759.72;;;14.39;100.00
4415;BME280;2220;42.670;23.398;2022-09-29T02:52:21;91705.72;;;14.83;100.00
4415;BME280;2220;42.670;23.398;2022-09-29T02:55:05;91716.69;;;14.63;100.00
4415;BME280;2220;42.670;23.398;2022-09-29T02:57:55;91696.44;;;14.60;100.00
4415;BME280;2220;42.670;23.398;2022-09-29T03:00:25;91666.31;;;14.73;100.00
4415;BME280;2220;42.670;23.398;2022-09-29T03:02:51;91658.09;;;14.74;100.00
4415;BME280;2220;42.670;23.398;2022-09-29T03:05:19;91657.66;;;14.69;100.00
4415;BME280;2220;42.670;23.398;2022-09-29T03:07:45;91650.84;;;14.64;100.00
4415;BME280;2220;42.670;23.398;2022-09-29T03:10:13;91631.88;;;14.71;100.00
4415;BME280;2220;42.670;23.398;2022-09-29T03:12:39;91627.75;;;14.73;100.00
4415;BME280;2220;42.670;23.398;2022-09-29T03:15:05;91614.06;;;14.53;100.00
4415;BME280;2220;42.670;23.398;2022-09-29T03:17:31;91578.53;;;14.52;100.00
4415;BME280;2220;42.670;23.398;2022-09-29T03:19:57;91580.16;;;14.38;100.00
4415;BME280;2220;42.670;23.398;2022-09-29T03:22:22;91597.53;;;14.23;100.00
4415;BME280;2220;42.670;23.398;2022-09-29T03:24:48;91580.69;;;14.20;100.00
4415;BME280;2220;42.670;23.398;2022-09-29T03:27:13;91614.31;;;14.18;100.00
4415;BME280;2220;42.670;23.398;2022-09-29T03:29:39;91611.34;;;14.20;100.00
4415;BME280;2220;42.670;23.398;2022-09-29T03:32:05;91600.38;;;14.37;100.00
4415;BME280;2220;42.670;23.398;2022-09-29T03:34:32;91596.50;;;14.54;100.00
4415;BME280;2220;42.670;23.398;2022-09-29T03:36:57;91603.72;;;14.64;100.00
4415;BME280;2220;42.670;23.398;2022-09-29T03:39:23;91606.06;;;14.73;100.00
4415;BME280;2220;42.670;23.398;2022-09-29T03:41:49;91617.00;;;14.82;100.00
4415;BME280;2220;42.670;23.398;2022-09-29T03:44:15;91608.09;;;14.87;100.00
4415;BME280;2220;42.670;23.398;2022-09-29T03:46:41;91623.63;;;15.02;100.00
4415;BME280;2220;42.670;23.398;2022-09-29T03:49:09;91645.28;;;14.99;100.00
4415;BME280;2220;42.670;23.398;2022-09-29T03:51:35;91705.38;;;14.55;100.00
4415;BME280;2220;42.670;23.398;2022-09-29T03:54:01;91752.03;;;14.26;100.00
4415;BME280;2220;42.670;23.398;2022-09-29T03:56:26;91767.84;;;13.88;100.00
4415;BME280;2220;42.670;23.398;2022-09-29T03:58:52;91783.84;;;13.44;100.00
4415;BME280;2220;42.670;23.398;2022-09-29T04:01:17;91802.03;;;12.86;100.00
4415;BME280;2220;42.670;23.398;2022-09-29T04:03:43;91796.91;;;12.74;100.00
4415;BME280;2220;42.670;23.398;2022-09-29T04:06:08;91788.25;;;12.70;100.00
4415;BME280;2220;42.670;23.398;2022-09-29T04:08:37;91768.03;;;12.67;100.00
4415;BME280;2220;42.670;23.398;2022-09-29T04:11:02;91739.31;;;12.67;100.00
4415;BME280;2220;42.670;23.398;2022-09-29T04:13:28;91723.03;;;12.73;100.00
4415;BME280;2220;42.670;23.398;2022-09-29T04:16:01;91700.94;;;12.86;100.00
4415;BME280;2220;42.670;23.398;2022-09-29T04:18:27;91701.69;;;12.87;100.00
4415;BME280;2220;42.670;23.398;2022-09-29T04:20:54;91701.28;;;12.85;100.00
4415;BME280;2220;42.670;23.398;2022-09-29T04:23:21;91683.75;;;12.85;100.00
4415;BME280;2220;42.670;23.398;2022-09-29T04:25:47;91680.53;;;12.92;100.00
4415;BME280;2220;42.670;23.398;2022-09-29T04:28:12;91668.28;;;12.96;100.00
4415;BME280;2220;42.670;23.398;2022-09-29T04:30:38;91647.53;;;13.03;100.00
4415;BME280;2220;42.670;23.398;2022-09-29T04:33:03;91647.31;;;12.93;100.00
4415;BME280;2220;42.670;23.398;2022-09-29T04:35:29;91654.25;;;13.04;100.00
4415;BME280;2220;42.670;23.398;2022-09-29T04:37:55;91664.66;;;13.01;100.00
4415;BME280;2220;42.670;23.398;2022-09-29T04:40:24;91645.31;;;13.05;100.00
4415;BME280;2220;42.670;23.398;2022-09-29T04:42:50;91640.56;;;13.11;100.00
4415;BME280;2220;42.670;23.398;2022-09-29T04:45:15;91629.94;;;13.20;100.00
4415;BME280;2220;42.670;23.398;2022-09-29T04:47:41;91617.94;;;13.19;100.00
4415;BME280;2220;42.670;23.398;2022-09-29T04:50:07;91639.94;;;12.98;100.00
4415;BME280;2220;42.670;23.398;2022-09-29T04:52:34;91618.25;;;12.94;100.00
4415;BME280;2220;42.670;23.398;2022-09-29T04:54:59;91616.56;;;13.05;100.00
4415;BME280;2220;42.670;23.398;2022-09-29T04:57:25;91619.25;;;13.09;100.00
4415;BME280;2220;42.670;23.398;2022-09-29T04:59:50;91611.81;;;13.11;100.00
4415;BME280;2220;42.670;23.398;2022-09-29T05:02:17;91602.41;;;13.26;100.00
4415;BME280;2220;42.670;23.398;2022-09-29T05:04:44;91593.94;;;13.32;100.00
4415;BME280;2220;42.670;23.398;2022-09-29T05:07:09;91595.84;;;13.35;100.00
4415;BME280;2220;42.670;23.398;2022-09-29T05:09:35;91591.78;;;13.38;100.00
4415;BME280;2220;42.670;23.398;2022-09-29T05:12:01;91592.88;;;13.37;100.00
4415;BME280;2220;42.670;23.398;2022-09-29T05:14:26;91578.22;;;13.55;100.00
4415;BME280;2220;42.670;23.398;2022-09-29T05:16:55;91537.53;;;13.81;100.00
4415;BME280;2220;42.670;23.398;2022-09-29T05:19:21;91525.47;;;14.03;100.00
4415;BME280;2220;42.670;23.398;2022-09-29T05:21:47;91533.13;;;14.15;100.00
4415;BME280;2220;42.670;23.398;2022-09-29T05:24:21;91554.19;;;14.25;100.00
4415;BME280;2220;42.670;23.398;2022-09-29T05:26:46;91570.06;;;14.36;100.00
4415;BME280;2220;42.670;23.398;2022-09-29T05:29:11;91583.56;;;14.42;100.00
4415;BME280;2220;42.670;23.398;2022-09-29T05:31:37;91571.56;;;14.67;100.00
4415;BME280;2220;42.670;23.398;2022-09-29T05:34:02;91576.66;;;14.87;100.00
4415;BME280;2220;42.670;23.398;2022-09-29T05:36:28;91586.19;;;15.05;100.00
4415;BME280;2220;42.670;23.398;2022-09-29T05:38:53;91588.66;;;15.25;100.00
4415;BME280;2220;42.670;23.398;2022-09-29T05:41:22;91594.38;;;15.37;100.00
4415;BME280;2220;42.670;23.398;2022-09-29T05:43:49;91613.00;;;15.25;100.00
4415;BME280;2220;42.670;23.398;2022-09-29T05:46:15;91616.84;;;15.35;100.00
4415;BME280;2220;42.670;23.398;2022-09-29T05:48:45;91635.47;;;15.63;100.00
4415;BME280;2220;42.670;23.398;2022-09-29T05:51:16;91679.41;;;15.70;100.00
4415;BME280;2220;42.670;23.398;2022-09-29T05:53:42;91701.78;;;15.98;100.00
4415;BME280;2220;42.670;23.398;2022-09-29T05:56:13;91725.16;;;16.13;100.00
4415;BME280;2220;42.670;23.398;2022-09-29T05:58:39;91757.19;;;16.33;100.00
4415;BME280;2220;42.670;23.398;2022-09-29T06:01:10;91808.75;;;16.52;100.00
4415;BME280;2220;42.670;23.398;2022-09-29T06:03:36;91873.44;;;16.64;100.00
4415;BME280;2220;42.670;23.398;2022-09-29T06:06:28;91939.81;;;16.94;100.00
4415;BME280;2220;42.670;23.398;2022-09-29T06:08:55;91997.81;;;17.12;100.00
4415;BME280;2220;42.670;23.398;2022-09-29T06:11:24;92059.22;;;17.30;100.00
4415;BME280;2220;42.670;23.398;2022-09-29T06:13:51;92129.56;;;17.37;100.00
4415;BME280;2220;42.670;23.398;2022-09-29T06:16:19;92201.44;;;17.11;100.00
4415;BME280;2220;42.670;23.398;2022-09-29T06:18:45;92228.19;;;17.17;100.00
4415;BME280;2220;42.670;23.398;2022-09-29T06:21:14;92252.00;;;17.31;100.00
4415;BME280;2220;42.670;23.398;2022-09-29T06:23:40;92270.03;;;17.59;100.00
4415;BME280;2220;42.670;23.398;2022-09-29T06:26:08;92312.91;;;17.59;100.00
4415;BME280;2220;42.670;23.398;2022-09-29T06:28:35;92341.00;;;17.52;100.00
4415;BME280;2220;42.670;23.398;2022-09-29T06:31:05;92330.81;;;17.77;100.00
4415;BME280;2220;42.670;23.398;2022-09-29T06:33:32;92347.53;;;17.92;100.00
4415;BME280;2220;42.670;23.398;2022-09-29T06:36:00;92378.28;;;17.84;100.00
4415;BME280;2220;42.670;23.398;2022-09-29T06:38:46;92384.47;;;17.69;100.00
4415;BME280;2220;42.670;23.398;2022-09-29T06:41:12;92369.44;;;17.99;100.00
4415;BME280;2220;42.670;23.398;2022-09-29T06:43:37;92386.19;;;18.14;100.00
4415;BME280;2220;42.670;23.398;2022-09-29T06:46:03;92394.66;;;18.00;100.00
4415;BME280;2220;42.670;23.398;2022-09-29T06:48:28;92402.66;;;18.07;100.00
4415;BME280;2220;42.670;23.398;2022-09-29T06:50:55;92392.13;;;17.77;100.00
4415;BME280;2220;42.670;23.398;2022-09-29T06:53:21;92378.31;;;17.57;100.00
4415;BME280;2220;42.670;23.398;2022-09-29T06:55:54;92352.63;;;17.77;100.00
4415;BME280;2220;42.670;23.398;2022-09-29T06:58:20;92332.59;;;17.99;100.00
4415;BME280;2220;42.670;23.398;2022-09-29T07:00:46;92348.97;;;18.19;100.00
4415;BME280;2220;42.670;23.398;2022-09-29T07:03:11;92369.69;;;18.21;100.00
4415;BME280;2220;42.670;23.398;2022-09-29T07:05:37;92377.44;;;18.06;100.00
4415;BME280;2220;42.670;23.398;2022-09-29T07:08:02;92369.13;;;18.38;100.00
4415;BME280;2220;42.670;23.398;2022-09-29T07:10:28;92377.31;;;18.66;100.00
4415;BME280;2220;42.670;23.398;2022-09-29T07:12:54;92399.75;;;18.87;100.00
4415;BME280;2220;42.670;23.398;2022-09-29T07:15:20;92423.25;;;19.03;100.00
4415;BME280;2220;42.670;23.398;2022-09-29T07:17:45;92459.66;;;19.27;100.00
4415;BME280;2220;42.670;23.398;2022-09-29T07:20:14;92490.31;;;19.42;100.00
4415;BME280;2220;42.670;23.398;2022-09-29T07:22:40;92507.72;;;19.50;100.00
4415;BME280;2220;42.670;23.398;2022-09-29T07:25:06;92568.41;;;19.10;100.00
4415;BME280;2220;42.670;23.398;2022-09-29T07:27:31;92562.03;;;19.11;100.00
4415;BME280;2220;42.670;23.398;2022-09-29T07:29:58;92535.56;;;19.04;100.00
4415;BME280;2220;42.670;23.398;2022-09-29T07:32:24;92534.94;;;18.80;100.00
4415;BME280;2220;42.670;23.398;2022-09-29T07:34:51;92528.78;;;18.69;100.00
4415;BME280;2220;42.670;23.398;2022-09-29T07:37:16;92508.03;;;18.67;100.00
4415;BME280;2220;42.670;23.398;2022-09-29T07:39:42;92519.34;;;18.68;100.00
4415;BME280;2220;42.670;23.398;2022-09-29T07:42:07;92499.63;;;18.92;100.00
4415;BME280;2220;42.670;23.398;2022-09-29T07:44:33;92514.03;;;18.98;100.00
4415;BME280;2220;42.670;23.398;2022-09-29T07:46:58;92527.00;;;19.14;100.00
4415;BME280;2220;42.670;23.398;2022-09-29T07:49:24;92536.78;;;19.13;100.00
4415;BME280;2220;42.670;23.398;2022-09-29T07:51:49;92530.81;;;19.20;100.00
4415;BME280;2220;42.670;23.398;2022-09-29T07:54:15;92560.09;;;19.08;100.00
4415;BME280;2220;42.670;23.398;2022-09-29T07:56:41;92578.34;;;19.23;100.00
4415;BME280;2220;42.670;23.398;2022-09-29T07:59:09;92563.69;;;19.26;100.00
4415;BME280;2220;42.670;23.398;2022-09-29T08:01:35;92535.22;;;19.46;100.00
4415;BME280;2220;42.670;23.398;2022-09-29T08:04:00;92533.38;;;19.53;100.00
4415;BME280;2220;42.670;23.398;2022-09-29T08:06:27;92562.28;;;19.36;100.00
4415;BME280;2220;42.670;23.398;2022-09-29T08:08:53;92577.06;;;19.47;100.00
4415;BME280;2220;42.670;23.398;2022-09-29T08:11:20;92572.41;;;19.67;100.00
4415;BME280;2220;42.670;23.398;2022-09-29T08:13:46;92581.53;;;19.80;100.00
4415;BME280;2220;42.670;23.398;2022-09-29T08:16:13;92613.97;;;19.77;100.00
4415;BME280;2220;42.670;23.398;2022-09-29T08:18:39;92621.66;;;19.90;100.00
4415;BME280;2220;42.670;23.398;2022-09-29T08:21:05;92614.56;;;20.04;100.00
4415;BME280;2220;42.670;23.398;2022-09-29T08:23:38;92649.34;;;20.10;100.00
4415;BME280;2220;42.670;23.398;2022-09-29T08:26:07;92679.09;;;20.00;100.00
4415;BME280;2220;42.670;23.398;2022-09-29T08:28:34;92680.38;;;20.17;100.00
4415;BME280;2220;42.670;23.398;2022-09-29T08:31:05;92662.69;;;20.24;100.00
4415;BME280;2220;42.670;23.398;2022-09-29T08:33:31;92650.00;;;20.44;100.00
4415;BME280;2220;42.670;23.398;2022-09-29T08:35:58;92642.19;;;20.58;100.00
4415;BME280;2220;42.670;23.398;2022-09-29T08:38:25;92646.06;;;20.72;100.00
4415;BME280;2220;42.670;23.398;2022-09-29T08:40:50;92668.06;;;20.86;100.00
4415;BME280;2220;42.670;23.398;2022-09-29T08:43:36;92648.53;;;21.16;100.00
4415;BME280;2220;42.670;23.398;2022-09-29T08:46:10;92681.38;;;21.08;100.00
4415;BME280;2220;42.670;23.398;2022-09-29T08:48:44;92682.09;;;21.01;100.00
4415;BME280;2220;42.670;23.398;2022-09-29T08:51:32;92706.16;;;20.75;100.00
4415;BME280;2220;42.670;23.398;2022-09-29T08:54:06;92697.81;;;20.73;100.00
4415;BME280;2220;42.670;23.398;2022-09-29T08:56:37;92723.47;;;20.68;100.00
4415;BME280;2220;42.670;23.398;2022-09-29T08:59:03;92722.44;;;20.84;100.00
4415;BME280;2220;42.670;23.398;2022-09-29T09:01:37;92692.69;;;21.01;100.00
4415;BME280;2220;42.670;23.398;2022-09-29T09:20:43;92665.75;;;21.61;100.00
4415;BME280;2220;42.670;23.398;2022-09-29T09:25:48;92706.66;;;21.78;100.00
4415;BME280;2220;42.670;23.398;2022-09-29T09:28:20;92744.53;;;21.89;100.00
4415;BME280;2220;42.670;23.398;2022-09-29T09:31:28;92760.56;;;22.28;100.00
4415;BME280;2220;42.670;23.398;2022-09-29T09:36:31;92819.44;;;22.95;100.00
4415;BME280;2220;42.670;23.398;2022-09-29T09:39:05;92837.25;;;23.19;100.00
4415;BME280;2220;42.670;23.398;2022-09-29T09:41:36;92807.63;;;23.31;100.00
4415;BME280;2220;42.670;23.398;2022-09-29T09:46:48;94117.31;;;22.96;100.00
4415;BME280;2220;42.670;23.398;2022-09-29T09:49:23;94145.25;;;23.09;100.00
4415;BME280;2220;42.670;23.398;2022-09-29T09:52:01;94164.00;;;22.97;100.00
4415;BME280;2220;42.670;23.398;2022-09-29T09:54:47;94164.78;;;23.17;100.00
4415;BME280;2220;42.670;23.398;2022-09-29T10:02:50;94174.09;;;23.27;98.58
4415;BME280;2220;42.670;23.398;2022-09-29T10:05:21;94178.97;;;23.25;96.18
4415;BME280;2220;42.670;23.398;2022-09-29T10:07:49;94181.09;;;23.35;92.46
4415;BME280;2220;42.670;23.398;2022-09-29T10:10:20;94187.81;;;23.67;86.16
4415;BME280;2220;42.670;23.398;2022-09-29T10:12:54;94193.69;;;23.77;86.22
4415;BME280;2220;42.670;23.398;2022-09-29T10:15:28;94184.00;;;23.49;85.46
4415;BME280;2220;42.670;23.398;2022-09-29T10:18:08;94187.94;;;23.55;82.01
4415;BME280;2220;42.670;23.398;2022-09-29T10:20:38;94192.00;;;23.30;82.55
4415;BME280;2220;42.670;23.398;2022-09-29T10:23:34;94180.44;;;23.22;79.89
4415;BME280;2220;42.670;23.398;2022-09-29T10:26:00;94177.78;;;23.41;81.76
4415;BME280;2220;42.670;23.398;2022-09-29T10:28:43;94184.03;;;23.68;84.35
4415;BME280;2220;42.670;23.398;2022-09-29T10:31:36;94188.47;;;24.03;79.94
4415;BME280;2220;42.670;23.398;2022-09-29T10:36:52;94178.72;;;24.11;86.88
4415;BME280;2220;42.670;23.398;2022-09-29T10:39:40;94183.88;;;24.23;83.96
4415;BME280;2220;42.670;23.398;2022-09-29T10:42:22;94191.53;;;24.05;82.09
4415;BME280;2220;42.670;23.398;2022-09-29T10:44:59;94188.13;;;24.27;77.04
4415;BME280;2220;42.670;23.398;2022-09-29T10:47:25;94190.03;;;24.50;76.62
4415;BME280;2220;42.670;23.398;2022-09-29T10:52:36;94186.03;;;25.43;69.31
4415;BME280;2220;42.670;23.398;2022-09-29T10:55:02;94175.00;;;25.44;70.75
4415;BME280;2220;42.670;23.398;2022-09-29T10:57:31;94176.22;;;25.84;67.83
4415;BME280;2220;42.670;23.398;2022-09-29T10:59:58;94174.28;;;25.81;64.17
4415;BME280;2220;42.670;23.398;2022-09-29T11:02:36;94176.06;;;25.39;63.86
4415;BME280;2220;42.670;23.398;2022-09-29T11:05:24;94177.38;;;25.53;62.36
4415;BME280;2220;42.670;23.398;2022-09-29T11:07:51;94170.16;;;25.87;60.87
4415;BME280;2220;42.670;23.398;2022-09-29T11:10:35;94172.72;;;25.76;61.42
4415;BME280;2220;42.670;23.398;2022-09-29T11:15:43;94163.69;;;25.54;65.71
4415;BME280;2220;42.670;23.398;2022-09-29T11:18:23;94168.63;;;25.89;66.14
4415;BME280;2220;42.670;23.398;2022-09-29T11:32:03;94152.91;;;25.77;62.78
4415;BME280;2220;42.670;23.398;2022-09-29T11:37:16;94155.75;;;25.99;64.60
4415;BME280;2220;42.670;23.398;2022-09-29T11:42:49;94147.19;;;25.75;60.33
4415;BME280;2220;42.670;23.398;2022-09-29T11:45:29;94150.56;;;25.72;61.29
4415;BME280;2220;42.670;23.398;2022-09-29T11:51:17;94140.72;;;25.46;61.26
4415;BME280;2220;42.670;23.398;2022-09-29T12:01:57;94150.72;;;25.53;61.04
4415;BME280;2220;42.670;23.398;2022-09-29T12:06:55;94149.78;;;25.08;60.95
4415;BME280;2220;42.670;23.398;2022-09-29T12:17:23;94140.53;;;25.02;64.62
4415;BME280;2220;42.670;23.398;2022-09-29T12:20:01;94147.09;;;25.04;68.69
4415;BME280;2220;42.670;23.398;2022-09-29T12:22:27;94143.44;;;24.90;63.48
4415;BME280;2220;42.670;23.398;2022-09-29T12:24:56;94140.19;;;24.47;65.59
4415;BME280;2220;42.670;23.398;2022-09-29T12:27:33;94143.03;;;24.35;65.62
4415;BME280;2220;42.670;23.398;2022-09-29T12:30:22;94135.91;;;23.96;66.74
4415;BME280;2220;42.670;23.398;2022-09-29T12:32:53;94141.78;;;23.83;68.53
4415;BME280;2220;42.670;23.398;2022-09-29T12:35:30;94140.03;;;23.71;68.87
4415;BME280;2220;42.670;23.398;2022-09-29T12:38:18;94142.63;;;23.67;70.83
4415;BME280;2220;42.670;23.398;2022-09-29T12:46:16;94145.50;;;24.01;76.42
4415;BME280;2220;42.670;23.398;2022-09-29T12:51:48;94138.69;;;24.26;73.06
4415;BME280;2220;42.670;23.398;2022-09-29T12:56:57;94125.41;;;24.30;66.54
4415;BME280;2220;42.670;23.398;2022-09-29T13:00:04;94137.06;;;24.22;66.93
4415;BME280;2220;42.670;23.398;2022-09-29T13:28:34;94140.63;;;25.05;68.48
4415;BME280;2220;42.670;23.398;2022-09-29T13:31:02;94149.56;;;25.20;67.01
4415;BME280;2220;42.670;23.398;2022-09-29T13:33:30;94143.31;;;25.09;68.24
4415;BME280;2220;42.670;23.398;2022-09-29T13:35:56;94134.94;;;25.07;68.76
4415;BME280;2220;42.670;23.398;2022-09-29T13:38:24;94147.06;;;24.78;67.44
4415;BME280;2220;42.670;23.398;2022-09-29T13:41:31;94148.97;;;24.77;66.65
4415;BME280;2220;42.670;23.398;2022-09-29T13:44:03;94161.25;;;24.59;65.29
4415;BME280;2220;42.670;23.398;2022-09-29T13:49:10;94152.66;;;24.43;65.49
4415;BME280;2220;42.670;23.398;2022-09-29T13:51:51;94146.66;;;24.26;66.73
4415;BME280;2220;42.670;23.398;2022-09-29T13:59:28;94148.06;;;23.55;72.33
4415;BME280;2220;42.670;23.398;2022-09-29T14:01:54;94152.06;;;23.45;73.88
4415;BME280;2220;42.670;23.398;2022-09-29T14:04:44;94152.88;;;23.50;74.52
4415;BME280;2220;42.670;23.398;2022-09-29T14:07:13;94155.13;;;23.48;74.95
4415;BME280;2220;42.670;23.398;2022-09-29T14:09:46;94163.06;;;23.44;73.11
4415;BME280;2220;42.670;23.398;2022-09-29T14:12:23;94168.00;;;23.45;74.25
4415;BME280;2220;42.670;23.398;2022-09-29T14:14:57;94162.59;;;23.42;74.62
4415;BME280;2220;42.670;23.398;2022-09-29T14:17:29;94166.13;;;23.46;75.59
4415;BME280;2220;42.670;23.398;2022-09-29T14:22:56;94177.94;;;23.49;77.44
4415;BME280;2220;42.670;23.398;2022-09-29T14:26:39;94183.47;;;23.40;77.48
4415;BME280;2220;42.670;23.398;2022-09-29T14:28:34;94184.50;;;23.16;77.26
4415;BME280;2220;42.670;23.398;2022-09-29T14:31:02;94191.53;;;23.08;76.48
4415;BME280;2220;42.670;23.398;2022-09-29T14:33:39;94211.69;;;22.94;80.48
4415;BME280;2220;42.670;23.398;2022-09-29T14:36:12;94228.50;;;22.66;81.78
4415;BME280;2220;42.670;23.398;2022-09-29T14:38:46;94226.28;;;21.93;100.00
4415;BME280;2220;42.670;23.398;2022-09-29T14:41:21;94195.47;;;20.80;100.00
4415;BME280;2220;42.670;23.398;2022-09-29T14:43:55;94117.53;;;19.92;100.00
4415;BME280;2220;42.670;23.398;2022-09-29T14:55:05;92459.09;;;18.06;100.00
4415;BME280;2220;42.670;23.398;2022-09-29T15:00:22;92094.53;;;17.67;100.00
4415;BME280;2220;42.670;23.398;2022-09-29T15:02:53;92016.19;;;17.53;100.00
4415;BME280;2220;42.670;23.398;2022-09-29T15:05:30;91987.25;;;17.49;100.00
4415;BME280;2220;42.670;23.398;2022-09-29T15:07:57;92023.66;;;17.47;100.00
4415;BME280;2220;42.670;23.398;2022-09-29T15:10:31;92079.56;;;17.33;100.00
4415;BME280;2220;42.670;23.398;2022-09-29T15:13:17;92049.06;;;17.25;100.00
4415;BME280;2220;42.670;23.398;2022-09-29T15:15:47;92021.28;;;17.31;100.00
4415;BME280;2220;42.670;23.398;2022-09-29T15:18:50;92000.34;;;17.42;100.00
4415;BME280;2220;42.670;23.398;2022-09-29T15:21:20;92261.28;;;17.51;100.00
4415;BME280;2220;42.670;23.398;2022-09-29T15:26:43;92195.50;;;17.85;100.00
4415;BME280;2220;42.670;23.398;2022-09-29T15:29:14;92156.84;;;17.96;100.00
4415;BME280;2220;42.670;23.398;2022-09-29T15:31:44;92128.66;;;17.97;100.00
4415;BME280;2220;42.670;23.398;2022-09-29T15:34:28;92111.00;;;18.01;100.00
4415;BME280;2220;42.670;23.398;2022-09-29T15:36:55;92116.31;;;18.08;100.00
4415;BME280;2220;42.670;23.398;2022-09-29T15:42:02;92123.16;;;18.20;100.00
4415;BME280;2220;42.670;23.398;2022-09-29T15:44:30;92119.81;;;18.23;100.00
4415;BME280;2220;42.670;23.398;2022-09-29T15:46:58;92096.88;;;18.23;100.00
4415;BME280;2220;42.670;23.398;2022-09-29T15:49:25;92078.34;;;18.12;100.00
4415;BME280;2220;42.670;23.398;2022-09-29T15:52:06;92043.22;;;17.94;100.00
4415;BME280;2220;42.670;23.398;2022-09-29T15:54:39;92016.78;;;17.73;100.00
4415;BME280;2220;42.670;23.398;2022-09-29T16:03:14;92031.34;;;17.67;100.00
4415;BME280;2220;42.670;23.398;2022-09-29T16:05:51;92043.34;;;17.60;100.00
4415;BME280;2220;42.670;23.398;2022-09-29T16:08:23;92053.09;;;17.60;100.00
4415;BME280;2220;42.670;23.398;2022-09-29T16:10:51;92073.84;;;17.65;100.00
4415;BME280;2220;42.670;23.398;2022-09-29T16:13:28;92092.06;;;17.81;100.00
4415;BME280;2220;42.670;23.398;2022-09-29T16:15:57;92096.97;;;17.86;100.00
4415;BME280;2220;42.670;23.398;2022-09-29T16:18:28;92107.94;;;17.95;100.00
4415;BME280;2220;42.670;23.398;2022-09-29T16:20:56;92088.81;;;18.02;100.00
4415;BME280;2220;42.670;23.398;2022-09-29T16:23:28;92069.44;;;17.76;100.00